createdAt,value
2019-05-30T00:02:58.762Z,61.10
2019-05-30T00:08:04.423Z,61.30
2019-05-30T00:13:09.398Z,62.20
2019-05-30T00:18:14.667Z,62.50
2019-05-30T00:23:19.417Z,62.70
2019-05-30T00:28:24.829Z,62.80
2019-05-30T00:33:30.039Z,63.00
2019-05-30T00:38:34.925Z,62.80
2019-05-30T00:43:40.001Z,62.70
2019-05-30T00:48:45.361Z,63.60
2019-05-30T00:53:50.254Z,63.40
2019-05-30T00:58:56.485Z,64.10
2019-05-30T01:04:02.885Z,64.30
2019-05-30T01:09:08.350Z,65.10
2019-05-30T01:14:13.595Z,65.20
2019-05-30T01:19:18.776Z,65.70
2019-05-30T01:24:23.936Z,66.50
2019-05-30T01:29:29.252Z,67.80
2019-05-30T01:34:34.620Z,68.70
2019-05-30T01:39:39.733Z,69.70
2019-05-30T01:44:44.649Z,69.00
2019-05-30T01:49:49.781Z,69.10
2019-05-30T01:54:55.083Z,70.30
2019-05-30T02:00:00.763Z,69.90
2019-05-30T02:05:07.579Z,72.40
2019-05-30T02:10:13.175Z,72.10
2019-05-30T02:15:18.159Z,73.40
2019-05-30T02:20:23.259Z,73.40
2019-05-30T02:25:28.183Z,73.10
2019-05-30T02:30:33.364Z,73.40
2019-05-30T02:35:38.325Z,72.60
2019-05-30T02:40:43.506Z,72.30
2019-05-30T02:45:48.185Z,70.40
2019-05-30T02:50:53.141Z,70.50
2019-05-30T02:55:57.827Z,70.70
2019-05-30T03:01:03.782Z,70.00
2019-05-30T03:06:09.288Z,69.00
2019-05-30T03:11:15.528Z,69.10
2019-05-30T03:16:19.741Z,68.40
2019-05-30T03:21:40.829Z,68.40
2019-05-30T03:26:46.178Z,68.10
2019-05-30T03:31:51.118Z,68.00
2019-05-30T03:36:57.477Z,68.60
2019-05-30T03:42:04.435Z,69.00
2019-05-30T03:47:13.305Z,70.20
2019-05-30T03:52:19.352Z,68.60
2019-05-30T03:57:28.716Z,69.40
2019-05-30T04:03:25.740Z,69.80
2019-05-30T04:08:34.341Z,69.20
2019-05-30T04:13:51.243Z,70.10
2019-05-30T04:18:56.293Z,71.20
2019-05-30T04:24:04.406Z,71.60
2019-05-30T04:29:09.850Z,72.30
2019-05-30T04:34:16.862Z,72.70
2019-05-30T04:39:22.057Z,72.80
2019-05-30T04:44:26.904Z,74.60
2019-05-30T04:49:33.561Z,76.40
2019-05-30T04:54:37.498Z,77.00
2019-05-30T04:59:42.791Z,78.40
2019-05-30T05:04:48.376Z,79.30
2019-05-30T05:09:53.843Z,80.30
2019-05-30T05:14:58.659Z,80.50
2019-05-30T05:20:04.429Z,80.50
2019-05-30T05:25:19.618Z,79.70
2019-05-30T05:30:24.663Z,80.20
2019-05-30T05:35:30.916Z,80.00
2019-05-30T05:40:36.083Z,79.80
2019-05-30T05:45:41.063Z,80.00
2019-05-30T05:50:46.034Z,81.30
2019-05-30T05:55:51.102Z,79.80
2019-05-30T06:00:56.167Z,79.60
2019-05-30T06:06:01.184Z,77.60
2019-05-30T06:11:07.134Z,77.40
2019-05-30T06:16:11.803Z,76.50
2019-05-30T06:21:17.267Z,75.20
2019-05-30T06:26:24.309Z,74.20
2019-05-30T06:31:28.709Z,72.30
2019-05-30T06:36:33.207Z,71.20
2019-05-30T06:41:37.816Z,69.80
2019-05-30T06:46:41.297Z,68.90
2019-05-30T06:51:47.127Z,69.50
2019-05-30T06:56:50.967Z,68.40
2019-05-30T07:01:55.078Z,66.40
2019-05-30T07:07:00.063Z,67.90
2019-05-30T07:12:04.561Z,65.90
2019-05-30T07:17:09.396Z,63.20
2019-05-30T07:22:13.720Z,61.80
2019-05-30T07:27:17.799Z,62.10
2019-05-30T07:32:24.040Z,61.00
2019-05-30T07:37:30.187Z,59.80
2019-05-30T07:42:36.342Z,57.30
2019-05-30T07:47:41.470Z,58.90
2019-05-30T07:52:46.679Z,57.00
2019-05-30T07:57:52.125Z,53.90
2019-05-30T08:02:57.997Z,54.30
2019-05-30T08:08:03.472Z,53.80
2019-05-30T08:13:09.004Z,53.60
2019-05-30T08:18:15.366Z,53.00
2019-05-30T08:23:21.300Z,53.10
2019-05-30T08:28:28.784Z,53.50
2019-05-30T08:33:35.596Z,50.80
2019-05-30T08:38:41.380Z,51.60
2019-05-30T08:43:46.911Z,52.30
2019-05-30T08:48:51.948Z,49.00
2019-05-30T08:53:57.717Z,48.10
2019-05-30T08:59:03.575Z,46.20
2019-05-30T09:04:08.882Z,47.20
2019-05-30T09:09:15.817Z,44.20
2019-05-30T09:14:21.013Z,43.40
2019-05-30T09:19:27.046Z,44.80
2019-05-30T09:24:32.822Z,44.00
2019-05-30T09:29:41.169Z,42.60
2019-05-30T09:34:48.892Z,42.70
2019-05-30T09:39:55.538Z,41.30
2019-05-30T09:45:02.541Z,41.80
2019-05-30T09:50:08.971Z,41.40
2019-05-30T09:55:16.646Z,41.10
2019-05-30T10:00:23.738Z,41.10
2019-05-30T10:05:29.430Z,39.10
2019-05-30T10:10:35.442Z,39.40
2019-05-30T10:15:40.201Z,40.10
2019-05-30T10:20:46.253Z,34.10
2019-05-30T10:25:53.375Z,37.10
2019-05-30T10:30:59.381Z,36.10
2019-05-30T10:36:03.522Z,34.50
2019-05-30T10:41:08.481Z,32.80
2019-05-30T10:46:14.308Z,34.90
2019-05-30T10:51:18.767Z,35.90
2019-05-30T10:56:24.009Z,35.30
2019-05-30T11:01:29.414Z,33.00
2019-05-30T11:07:09.909Z,34.00
2019-05-30T11:12:02.015Z,34.30
2019-05-30T11:17:06.874Z,34.70
2019-05-30T11:22:11.602Z,34.10
2019-05-30T11:27:16.183Z,35.20
2019-05-30T11:32:22.759Z,34.90
2019-05-30T11:37:28.366Z,36.10
2019-05-30T11:42:33.433Z,36.30
2019-05-30T11:47:39.416Z,37.10
2019-05-30T11:52:44.995Z,37.80
2019-05-30T11:57:50.326Z,35.60
2019-05-30T12:02:56.462Z,38.20
2019-05-30T12:08:02.500Z,37.70
2019-05-30T12:13:09.265Z,36.80
2019-05-30T12:18:14.238Z,36.10
2019-05-30T12:23:19.805Z,34.80
2019-05-30T12:28:24.483Z,37.00
2019-05-30T12:33:30.004Z,34.20
2019-05-30T12:38:35.350Z,35.50
2019-05-30T12:43:42.757Z,33.40
2019-05-30T12:48:48.298Z,31.90
2019-05-30T12:53:54.364Z,30.10
2019-05-30T12:58:58.740Z,31.20
2019-05-30T13:04:04.842Z,32.70
2019-05-30T13:09:08.745Z,32.20
2019-05-30T13:14:12.276Z,32.90
2019-05-30T13:19:17.043Z,34.40
2019-05-30T13:24:21.451Z,36.10
2019-05-30T13:29:27.467Z,34.90
2019-05-30T13:34:32.937Z,35.80
2019-05-30T13:39:39.136Z,37.00
2019-05-30T13:44:45.409Z,35.60
2019-05-30T13:49:50.602Z,35.00
2019-05-30T13:54:55.757Z,34.60
2019-05-30T14:00:01.900Z,35.70
2019-05-30T14:05:10.610Z,32.80
2019-05-30T14:10:16.355Z,35.70
2019-05-30T14:15:22.213Z,34.80
2019-05-30T14:20:27.595Z,36.80
2019-05-30T14:25:33.715Z,35.40
2019-05-30T14:30:39.456Z,34.70
2019-05-30T14:35:44.916Z,35.70
2019-05-30T14:40:49.324Z,35.50
2019-05-30T14:45:54.435Z,35.40
2019-05-30T14:50:59.253Z,34.70
2019-05-30T14:56:05.006Z,34.70
2019-05-30T15:01:11.262Z,35.00
2019-05-30T15:06:17.706Z,35.00
2019-05-30T15:11:23.631Z,35.70
2019-05-30T15:16:27.915Z,36.20
2019-05-30T15:21:31.408Z,36.50
2019-05-30T15:26:34.886Z,34.50
2019-05-30T15:31:39.548Z,35.10
2019-05-30T15:36:44.037Z,35.00
2019-05-30T15:41:48.304Z,36.50
2019-05-30T15:46:53.216Z,35.70
2019-05-30T15:51:57.598Z,36.70
2019-05-30T15:57:03.059Z,36.80
2019-05-30T16:02:07.611Z,37.60
2019-05-30T16:07:14.610Z,36.80
2019-05-30T16:12:19.310Z,35.50
2019-05-30T16:17:23.139Z,37.60
2019-05-30T16:22:28.782Z,37.90
2019-05-30T16:27:35.674Z,37.30
2019-05-30T16:32:41.154Z,37.20
2019-05-30T16:37:46.015Z,38.10
2019-05-30T16:42:51.281Z,37.60
2019-05-30T16:47:56.828Z,37.80
2019-05-30T16:53:02.165Z,37.80
2019-05-30T16:58:09.158Z,38.00
2019-05-30T17:03:16.283Z,38.40
2019-05-30T17:08:22.179Z,38.30
2019-05-30T17:13:31.193Z,39.00
2019-05-30T17:18:35.913Z,38.20
2019-05-30T17:23:42.837Z,39.00
2019-05-30T17:28:49.243Z,39.10
2019-05-30T17:33:56.562Z,39.10
2019-05-30T17:39:04.361Z,38.60
2019-05-30T17:44:09.775Z,38.20
2019-05-30T17:49:15.409Z,40.20
2019-05-30T17:54:21.728Z,40.10
2019-05-30T17:59:28.470Z,41.10
2019-05-30T18:04:34.529Z,40.30
2019-05-30T18:09:39.997Z,40.90
2019-05-30T18:14:45.612Z,41.90
2019-05-30T18:19:52.194Z,42.10
2019-05-30T18:24:57.445Z,42.40
2019-05-30T18:30:04.004Z,43.10
2019-05-30T18:35:12.605Z,44.60
2019-05-30T18:40:30.782Z,44.20
2019-05-30T18:45:41.447Z,46.00
2019-05-30T18:50:46.241Z,45.20
2019-05-30T18:55:49.813Z,47.40
2019-05-30T19:00:55.203Z,48.50
2019-05-30T19:06:00.707Z,51.40
2019-05-30T19:11:06.247Z,52.20
2019-05-30T19:16:10.362Z,53.00
2019-05-30T19:21:14.408Z,55.70
2019-05-30T19:26:18.007Z,56.80
2019-05-30T19:31:22.076Z,55.90
2019-05-30T19:36:26.835Z,54.20
2019-05-30T19:41:45.320Z,54.90
2019-05-30T19:46:38.401Z,57.30
2019-05-30T19:51:43.382Z,56.70
2019-05-30T19:56:50.594Z,55.40
2019-05-30T20:01:56.149Z,58.40
2019-05-30T20:07:01.474Z,59.40
2019-05-30T20:12:08.754Z,60.50
2019-05-30T20:17:13.069Z,61.50
2019-05-30T20:22:17.782Z,61.60
2019-05-30T20:27:22.071Z,63.30
2019-05-30T20:32:28.416Z,62.30
2019-05-30T20:37:34.576Z,62.60
2019-05-30T20:42:41.058Z,64.50
2019-05-30T20:47:47.419Z,64.70
2019-05-30T20:52:53.508Z,66.50
2019-05-30T20:57:58.646Z,65.90
2019-05-30T21:03:04.374Z,65.70
2019-05-30T21:08:10.402Z,66.20
2019-05-30T21:13:15.997Z,66.20
2019-05-30T21:18:21.216Z,67.20
2019-05-30T21:23:27.250Z,67.40
2019-05-30T21:28:32.455Z,67.80
2019-05-30T21:33:39.832Z,68.20
2019-05-30T21:38:46.091Z,68.90
2019-05-30T21:43:51.868Z,69.60
2019-05-30T21:48:57.669Z,69.40
2019-05-30T21:54:04.003Z,70.10
2019-05-30T21:59:09.594Z,71.90
2019-05-30T22:04:15.443Z,72.00
2019-05-30T22:09:20.511Z,71.70
2019-05-30T22:14:26.761Z,72.50
2019-05-30T22:19:32.487Z,70.70
2019-05-30T22:24:37.773Z,70.90
2019-05-30T22:29:42.758Z,72.70
2019-05-30T22:34:48.794Z,72.10
2019-05-30T22:39:55.107Z,71.80
2019-05-30T22:45:00.548Z,74.30
2019-05-30T22:50:06.062Z,74.70
2019-05-30T22:55:11.197Z,74.10
2019-05-30T23:00:18.513Z,75.90
2019-05-30T23:05:23.917Z,75.90
2019-05-30T23:10:28.946Z,77.20
2019-05-30T23:15:34.264Z,76.10
2019-05-30T23:20:39.054Z,77.00
2019-05-30T23:25:42.397Z,77.10
2019-05-30T23:30:47.778Z,77.70
2019-05-30T23:35:54.561Z,77.00
2019-05-30T23:40:59.697Z,77.50
2019-05-30T23:46:05.110Z,76.30
2019-05-30T23:51:09.435Z,77.20
2019-05-30T23:56:14.138Z,76.30
